Simmons, Missouri
Current Conditions -  °F | °C
As of 11:53 PM on Thursday 27 Nov 2014 (Local Time) from KUNO Reporting Station
Clear Clear  
Wind Chill: 26°   Ceiling: Unl
Heat Index: 31°   Visibility: 10mi
Dew Point: 20°   Wind: 5mph
Humidity: 64%   Direction: 140°SE
Pressure: 30.35"   Gusts: NA
Location:  37.3091°N, 91.9516°W
Report Text: KUNO 280553Z AUTO 14004KT 10SM CLR M01/M07 A3035 RMK AO2 SLP287 T10061067 10011 21028 400671028 58016
Loading
Personal Weather Stations






























Interactive Weather Map New forecast layout! Learn more

10-Day Weather Forecast

Advertisements
Track Severe Weather on mobile